Time;durP1;ratioP1;P1;durP2;ratioP2;P2;SDS_P1;SDS_P2;PMS_P1;PMS_P2;Temp;Humidity;BMP_temperature;BMP_pressure;BME280_temperature;BME280_humidity;BME280_pressure;Samples;Min_cycle;Max_cycle;Signal;HPM_P1;HPM_P2
2024/03/16 00:00:43;;;;;;;16.13;6.50;;;;;;;9.55;100.00;100555.31;10269563;28;20049;-75
2024/03/16 00:05:39;;;;;;;12.60;7.35;;;;;;;9.53;100.00;100554.03;10269401;28;20393;-75
2024/03/16 00:10:35;;;;;;;10.27;5.97;;;;;;;9.56;100.00;100556.13;10273193;28;20048;-76
2024/03/16 00:15:32;;;;;;;15.13;6.90;;;;;;;9.51;100.00;100556.25;10269689;28;20061;-76
2024/03/16 00:20:30;;;;;;;19.70;7.00;;;;;;;9.58;100.00;100567.53;10265499;28;20045;-76
2024/03/16 00:25:27;;;;;;;13.95;6.28;;;;;;;9.57;100.00;100565.94;10268903;28;20053;-76
2024/03/16 00:30:23;;;;;;;14.65;6.47;;;;;;;9.62;100.00;100563.06;10261850;28;20041;-76
2024/03/16 00:35:20;;;;;;;18.70;7.80;;;;;;;9.59;100.00;100569.16;10268201;28;20037;-76
2024/03/16 00:40:19;;;;;;;14.85;6.28;;;;;;;9.69;100.00;100572.41;10269383;28;20048;-76
2024/03/16 00:45:15;;;;;;;17.55;7.38;;;;;;;9.73;100.00;100575.31;10265472;28;20132;-74
2024/03/16 00:50:14;;;;;;;15.20;7.32;;;;;;;9.76;100.00;100574.66;10271455;28;20048;-74
2024/03/16 00:55:10;;;;;;;15.30;7.25;;;;;;;9.78;100.00;100574.38;10267785;28;20041;-74
2024/03/16 01:00:09;;;;;;;14.77;8.13;;;;;;;9.82;100.00;100578.88;10269192;28;20127;-74
2024/03/16 01:05:06;;;;;;;14.00;7.65;;;;;;;9.88;100.00;100574.06;10271485;28;20535;-73
2024/03/16 01:10:03;;;;;;;19.98;9.73;;;;;;;9.93;100.00;100573.13;10263648;28;20136;-76
2024/03/16 01:15:00;;;;;;;23.52;10.07;;;;;;;9.89;100.00;100573.75;10266186;28;20048;-77
2024/03/16 01:19:56;;;;;;;23.50;10.48;;;;;;;9.90;100.00;100564.44;10263669;28;20408;-76
2024/03/16 01:24:53;;;;;;;19.25;10.55;;;;;;;9.88;100.00;100580.31;10274666;28;20105;-76
2024/03/16 01:29:49;;;;;;;15.98;9.85;;;;;;;9.84;100.00;100573.91;10276798;28;20406;-76
2024/03/16 01:34:46;;;;;;;22.60;11.75;;;;;;;9.89;100.00;100579.22;10270003;28;20554;-76
2024/03/16 01:39:43;;;;;;;23.33;11.07;;;;;;;9.89;100.00;100571.03;10267703;28;20049;-78
2024/03/16 01:45:13;;;;;;;22.40;11.65;;;;;;;9.90;100.00;100586.28;10264876;28;20080;-77
2024/03/16 01:50:10;;;;;;;26.05;11.63;;;;;;;9.88;100.00;100591.25;10264652;28;20049;-76
2024/03/16 01:55:06;;;;;;;19.80;10.68;;;;;;;9.89;100.00;100581.97;10266383;28;20047;-76
2024/03/16 02:00:05;;;;;;;19.98;11.50;;;;;;;9.90;100.00;100589.00;10269925;28;20048;-74
2024/03/16 02:05:03;;;;;;;22.60;12.95;;;;;;;9.78;100.00;100583.34;10269170;28;20114;-73
2024/03/16 02:10:05;;;;;;;28.15;13.13;;;;;;;9.73;100.00;100580.78;10262959;28;20095;-77
2024/03/16 02:15:02;;;;;;;23.43;12.17;;;;;;;9.81;100.00;100571.00;10263677;28;20096;-77
2024/03/16 02:19:58;;;;;;;21.92;12.57;;;;;;;9.85;100.00;100572.78;10267895;28;20048;-77
2024/03/16 02:24:56;;;;;;;19.17;13.13;;;;;;;9.85;100.00;100561.06;10270246;28;20068;-73
2024/03/16 02:29:53;;;;;;;22.05;13.10;;;;;;;9.92;100.00;100576.97;10265515;28;20128;-74
2024/03/16 02:34:49;;;;;;;28.15;12.70;;;;;;;9.92;100.00;100571.53;10267977;28;20048;-75
2024/03/16 02:39:46;;;;;;;26.35;14.13;;;;;;;9.92;100.00;100571.53;10270185;28;20048;-75
2024/03/16 02:44:42;;;;;;;24.13;13.38;;;;;;;9.94;100.00;100580.22;10267572;28;20080;-75
2024/03/16 02:49:40;;;;;;;25.95;13.93;;;;;;;9.94;100.00;100574.75;10270218;28;20045;-74
2024/03/16 02:54:36;;;;;;;29.95;13.48;;;;;;;9.97;100.00;100574.09;10272431;28;20497;-74
2024/03/16 02:59:33;;;;;;;25.40;13.35;;;;;;;9.96;100.00;100584.22;10274888;28;20045;-73
2024/03/16 03:04:30;;;;;;;23.90;13.55;;;;;;;10.00;100.00;100587.13;10275650;28;20041;-74
2024/03/16 03:09:26;;;;;;;24.55;12.10;;;;;;;9.98;100.00;100595.66;10274532;28;20061;-74
2024/03/16 03:14:23;;;;;;;23.23;12.52;;;;;;;10.00;100.00;100595.31;10271814;28;20103;-73
2024/03/16 03:19:19;;;;;;;27.17;12.38;;;;;;;10.03;100.00;100589.22;10266556;28;20090;-73
2024/03/16 03:24:16;;;;;;;25.15;12.88;;;;;;;9.93;100.00;100600.44;10272033;28;20045;-72
2024/03/16 03:29:12;;;;;;;26.80;13.35;;;;;;;9.95;100.00;100592.72;10273296;28;20566;-74
2024/03/16 03:34:08;;;;;;;24.45;13.52;;;;;;;9.99;100.00;100599.19;10265761;28;20052;-74
2024/03/16 03:39:05;;;;;;;24.95;13.80;;;;;;;10.00;100.00;100596.13;10271218;28;20041;-73
2024/03/16 03:44:19;;;;;;;23.33;13.50;;;;;;;10.01;100.00;100594.19;10263905;28;20053;-73
2024/03/16 03:49:39;;;;;;;26.48;14.02;;;;;;;10.01;100.00;100591.47;10272837;28;20048;-75
2024/03/16 03:54:36;;;;;;;25.20;13.27;;;;;;;10.05;100.00;100598.72;10275798;28;20037;-75
2024/03/16 03:59:32;;;;;;;28.88;13.68;;;;;;;10.04;100.00;100596.28;10292958;28;20055;-76
2024/03/16 04:04:29;;;;;;;22.10;13.05;;;;;;;10.05;100.00;100595.19;10273377;28;20048;-75
2024/03/16 04:09:25;;;;;;;22.08;12.25;;;;;;;10.07;100.00;100606.56;10278079;28;20111;-75
2024/03/16 04:14:22;;;;;;;28.80;13.30;;;;;;;10.07;100.00;100601.13;10268629;28;20048;-75
2024/03/16 04:19:18;;;;;;;25.13;11.52;;;;;;;10.08;100.00;100597.28;10274907;28;20546;-75
2024/03/16 04:24:15;;;;;;;33.22;11.65;;;;;;;10.08;100.00;100610.94;10261971;28;20141;-74
2024/03/16 04:29:11;;;;;;;20.05;10.57;;;;;;;10.10;100.00;100614.97;10273160;28;20131;-75
2024/03/16 04:34:08;;;;;;;25.95;10.70;;;;;;;10.11;100.00;100623.94;10269194;28;20419;-75
2024/03/16 04:39:05;;;;;;;23.63;9.90;;;;;;;10.13;100.00;100624.44;10275802;28;20049;-75
2024/03/16 04:44:02;;;;;;;22.33;10.20;;;;;;;10.12;100.00;100636.50;10281897;28;20070;-74
2024/03/16 04:49:00;;;;;;;26.33;9.77;;;;;;;10.14;100.00;100634.25;10277631;28;20049;-74
2024/03/16 04:53:56;;;;;;;24.48;9.15;;;;;;;10.02;100.00;100642.25;10263546;28;20052;-73
2024/03/16 04:58:53;;;;;;;22.48;9.15;;;;;;;9.96;100.00;100643.53;10271616;28;20056;-73
2024/03/16 05:03:50;;;;;;;22.88;10.48;;;;;;;9.67;100.00;100633.91;10273939;28;20101;-73
2024/03/16 05:08:47;;;;;;;23.75;10.32;;;;;;;9.55;100.00;100617.31;10273037;28;20049;-76
2024/03/16 05:13:44;;;;;;;23.50;10.07;;;;;;;9.47;100.00;100600.56;10274753;28;20041;-75
2024/03/16 05:18:41;;;;;;;22.55;10.15;;;;;;;9.43;100.00;100587.88;10278040;28;20045;-78
2024/03/16 05:23:37;;;;;;;28.08;11.70;;;;;;;9.36;100.00;100588.31;10267445;28;20052;-78
2024/03/16 05:28:34;;;;;;;23.08;10.75;;;;;;;9.29;100.00;100603.50;10276781;28;20044;-77
2024/03/16 05:33:31;;;;;;;9.55;4.57;;;;;;;8.72;100.00;100604.06;10273510;28;20049;-77
2024/03/16 05:38:27;;;;;;;12.52;4.10;;;;;;;8.66;100.00;100608.00;10279586;28;20053;-75
2024/03/16 05:43:24;;;;;;;7.88;2.65;;;;;;;8.49;100.00;100606.72;10280026;28;20049;-75
2024/03/16 05:48:22;;;;;;;4.10;1.40;;;;;;;8.27;100.00;100620.28;10269972;28;20040;-75
2024/03/16 05:53:20;;;;;;;3.42;1.08;;;;;;;8.24;100.00;100621.69;10274771;28;20051;-76
2024/03/16 05:58:16;;;;;;;3.28;1.15;;;;;;;7.96;100.00;100646.22;10262376;28;20052;-75
2024/03/16 06:03:13;;;;;;;4.75;1.55;;;;;;;7.97;100.00;100652.47;10270177;28;20425;-77
2024/03/16 06:08:10;;;;;;;3.58;1.60;;;;;;;7.79;100.00;100663.13;10269158;28;20041;-77
2024/03/16 06:13:07;;;;;;;7.35;2.38;;;;;;;7.76;100.00;100674.59;10265316;28;20051;-74
2024/03/16 06:18:04;;;;;;;4.88;2.38;;;;;;;7.71;100.00;100674.72;10259668;28;20048;-74
2024/03/16 06:23:01;;;;;;;8.95;3.25;;;;;;;7.62;100.00;100687.38;10265507;28;20040;-72
2024/03/16 06:28:05;;;;;;;10.25;3.65;;;;;;;7.56;100.00;100702.16;10280120;28;20040;-74
2024/03/16 06:33:08;;;;;;;10.88;3.95;;;;;;;7.36;100.00;100709.56;10269009;28;20110;-77
2024/03/16 06:38:05;;;;;;;14.73;3.63;;;;;;;7.24;100.00;100722.81;10275789;28;20163;-76
2024/03/16 06:43:02;;;;;;;10.23;2.88;;;;;;;7.25;100.00;100740.75;10275113;28;20048;-76
2024/03/16 06:47:58;;;;;;;9.18;3.53;;;;;;;7.22;100.00;100760.38;10274242;28;20037;-75
2024/03/16 06:52:55;;;;;;;7.50;2.28;;;;;;;7.12;100.00;100779.53;10275121;28;20041;-74
2024/03/16 06:57:51;;;;;;;9.40;3.58;;;;;;;6.81;100.00;100807.13;10271774;28;20381;-76
2024/03/16 07:02:48;;;;;;;10.25;3.72;;;;;;;6.81;100.00;100807.13;10275725;28;20467;-78
2024/03/16 07:07:45;;;;;;;10.32;3.75;;;;;;;6.70;100.00;100843.66;10274822;28;20040;-77
2024/03/16 07:12:41;;;;;;;12.02;3.90;;;;;;;6.62;100.00;100857.91;10275560;28;20041;-73
2024/03/16 07:17:38;;;;;;;10.70;3.30;;;;;;;6.71;100.00;100883.34;10272713;28;20099;-72
2024/03/16 07:22:34;;;;;;;13.77;4.10;;;;;;;6.54;100.00;100900.06;10272994;28;20052;-75
2024/03/16 07:27:32;;;;;;;16.38;4.90;;;;;;;6.66;100.00;100929.56;10270806;28;20053;-73
2024/03/16 07:32:29;;;;;;;11.85;3.25;;;;;;;6.44;100.00;100943.63;10269857;28;20056;-76
2024/03/16 07:37:25;;;;;;;13.90;4.00;;;;;;;6.57;100.00;100963.88;10273386;28;20049;-75
2024/03/16 07:42:22;;;;;;;9.52;2.78;;;;;;;6.72;100.00;100985.50;10276863;28;20102;-72
2024/03/16 07:47:19;;;;;;;12.27;2.60;;;;;;;-146.18;100.00;67994.34;10272735;28;20033;-72
2024/03/16 07:52:15;;;;;;;9.63;1.88;;;;;;;6.51;100.00;101026.41;10271178;28;20068;-73
2024/03/16 07:57:12;;;;;;;11.23;2.35;;;;;;;6.51;100.00;101026.41;10268650;28;20512;-75
2024/03/16 08:02:08;;;;;;;9.48;2.35;;;;;;;6.51;100.00;101026.41;10264736;28;20451;-73
2024/03/16 08:07:05;;;;;;;10.43;2.90;;;;;;;6.35;100.00;101109.09;10258588;28;20040;-74
2024/03/16 08:12:02;;;;;;;6.53;2.20;;;;;;;6.36;100.00;101113.44;10266636;28;20053;-72
2024/03/16 08:16:59;;;;;;;6.95;2.08;;;;;;;6.27;100.00;101136.84;10264863;28;20041;-74
2024/03/16 08:21:55;;;;;;;14.07;2.47;;;;;;;6.26;100.00;101143.34;10268997;28;20037;-74
2024/03/16 08:26:52;;;;;;;8.82;2.47;;;;;;;6.26;100.00;101143.34;10272646;28;20045;-73
2024/03/16 08:31:48;;;;;;;11.35;2.45;;;;;;;6.26;100.00;101143.34;10265553;28;20045;-74
2024/03/16 08:36:45;;;;;;;8.95;2.33;;;;;;;6.26;100.00;101143.34;10261596;28;20049;-74
2024/03/16 08:41:41;;;;;;;6.32;2.38;;;;;;;-146.18;100.00;67994.34;10263668;28;20098;-73
2024/03/16 08:46:38;;;;;;;12.43;2.42;;;;;;;-146.18;100.00;67994.34;10269327;28;20063;-75
2024/03/16 08:51:34;;;;;;;9.88;2.55;;;;;;;-146.18;100.00;67994.34;10263553;28;20051;-72
2024/03/16 08:56:31;;;;;;;9.95;2.33;;;;;;;6.36;100.00;101240.25;10259932;28;20516;-73
2024/03/16 09:01:28;;;;;;;7.70;2.80;;;;;;;6.35;100.00;101239.44;10269273;28;20045;-73
2024/03/16 09:06:24;;;;;;;4.85;2.38;;;;;;;6.37;100.00;101261.72;10254946;28;20047;-73
2024/03/16 09:11:21;;;;;;;11.40;3.17;;;;;;;6.48;100.00;101260.59;10268769;28;20037;-72
2024/03/16 09:16:21;;;;;;;11.80;3.17;;;;;;;6.51;100.00;101270.09;10268311;28;20345;-72
2024/03/16 09:21:18;;;;;;;11.43;3.25;;;;;;;6.61;100.00;101274.69;10263383;28;20459;-73
2024/03/16 09:26:14;;;;;;;12.85;3.60;;;;;;;6.61;100.00;101274.69;10259349;28;20045;-74
2024/03/16 09:31:10;;;;;;;8.27;3.25;;;;;;;7.08;100.00;101289.72;10259055;28;20041;-73
2024/03/16 09:36:07;;;;;;;14.23;3.55;;;;;;;7.19;100.00;101291.25;10258671;28;20064;-72
2024/03/16 09:41:04;;;;;;;9.50;3.67;;;;;;;7.47;100.00;101297.06;10256902;28;20052;-72
2024/03/16 09:46:02;;;;;;;7.63;3.20;;;;;;;7.32;100.00;101301.53;10256507;28;20513;-72
2024/03/16 09:50:58;;;;;;;8.95;3.42;;;;;;;7.15;100.00;101311.97;10258294;28;20158;-72
2024/03/16 09:55:56;;;;;;;9.55;3.30;;;;;;;7.20;100.00;101330.97;10261036;28;20532;-71
2024/03/16 10:00:53;;;;;;;12.80;3.83;;;;;;;7.00;100.00;101352.81;10258499;28;20117;-70
2024/03/16 10:05:49;;;;;;;8.23;2.90;;;;;;;7.19;100.00;101356.53;10273988;28;20079;-73
2024/03/16 10:10:45;;;;;;;7.03;2.85;;;;;;;7.12;100.00;101345.13;10277196;28;20072;-72
2024/03/16 10:15:41;;;;;;;11.60;3.42;;;;;;;7.37;100.00;101372.22;10267536;28;20660;-71
2024/03/16 10:20:37;;;;;;;11.45;3.17;;;;;;;8.00;100.00;101373.44;10266447;28;20079;-71
2024/03/16 10:25:33;;;;;;;11.07;3.33;;;;;;;7.55;100.00;101383.56;10265839;28;20415;-72
2024/03/16 10:30:28;;;;;;;7.47;3.35;;;;;;;7.38;100.00;101395.63;10265074;28;20041;-71
2024/03/16 10:35:32;;;;;;;9.63;3.17;;;;;;;7.54;100.00;101406.41;10269531;28;20512;-71
2024/03/16 10:40:28;;;;;;;13.38;3.78;;;;;;;7.68;100.00;101404.72;10278555;28;20061;-73
2024/03/16 10:45:24;;;;;;;8.65;3.03;;;;;;;7.61;100.00;101415.06;10279885;28;20460;-73
2024/03/16 10:50:24;;;;;;;8.55;3.25;;;;;;;7.62;100.00;101435.78;10281754;28;20095;-71
2024/03/16 10:55:24;;;;;;;7.75;3.53;;;;;;;8.10;100.00;101436.03;10286630;28;20092;-72
2024/03/16 11:00:26;;;;;;;17.10;4.13;;;;;;;9.12;100.00;101437.03;10284564;28;20069;-72
2024/03/16 11:05:35;;;;;;;11.30;4.40;;;;;;;8.86;100.00;101447.38;10282469;28;20072;-72
2024/03/16 11:10:39;;;;;;;9.65;3.60;;;;;;;9.48;100.00;101452.97;10267489;28;20071;-71
2024/03/16 11:15:38;;;;;;;5.95;3.63;;;;;;;9.40;100.00;101457.16;10271153;28;20041;-71
2024/03/16 11:20:34;;;;;;;9.27;4.35;;;;;;;8.73;100.00;101481.59;10264916;28;20080;-72
2024/03/16 11:25:29;;;;;;;11.88;5.10;;;;;;;8.97;100.00;101469.91;10265250;28;20053;-72
2024/03/16 11:30:25;;;;;;;12.52;4.53;;;;;;;9.08;100.00;101481.53;10271052;28;20051;-72
2024/03/16 11:35:22;;;;;;;6.85;4.15;;;;;;;9.19;100.00;101489.34;10268917;28;20163;-71
2024/03/16 11:40:18;;;;;;;7.25;3.85;;;;;;;8.72;100.00;101490.06;10273958;28;20095;-72
2024/03/16 11:45:14;;;;;;;8.48;4.13;;;;;;;9.35;100.00;101481.78;10272729;28;20059;-70
2024/03/16 11:50:10;;;;;;;17.60;4.85;;;;;;;9.73;100.00;101476.41;10265612;28;20488;-72
2024/03/16 11:55:06;;;;;;;13.27;5.00;;;;;;;10.31;100.00;101492.53;10271028;28;20049;-72
2024/03/16 12:00:02;;;;;;;10.82;4.70;;;;;;;10.46;100.00;101494.19;10266317;28;20032;-73
2024/03/16 12:04:58;;;;;;;11.45;4.85;;;;;;;10.72;100.00;101513.75;10256498;28;20088;-73
2024/03/16 12:09:53;;;;;;;8.98;4.72;;;;;;;10.36;100.00;101526.38;10264286;28;20405;-73
2024/03/16 12:15:09;;;;;;;11.18;4.75;;;;;;;10.46;100.00;101537.13;10256097;28;20033;-74
2024/03/16 12:20:10;;;;;;;17.63;4.47;;;;;;;11.61;100.00;101521.97;10260378;28;20077;-74
2024/03/16 12:25:10;;;;;;;10.73;4.50;;;;;;;12.53;100.00;101540.00;10267647;28;20482;-73
2024/03/16 12:30:08;;;;;;;11.82;5.13;;;;;;;10.61;100.00;101563.44;10268909;28;20405;-74
2024/03/16 12:35:04;;;;;;;10.10;4.53;;;;;;;9.54;100.00;101565.63;10260829;28;20087;-73
2024/03/16 12:40:00;;;;;;;14.73;4.78;;;;;;;10.31;100.00;101566.31;10272296;28;20040;-73
2024/03/16 12:44:57;;;;;;;14.63;4.30;;;;;;;9.71;100.00;101566.00;10259124;28;20037;-73
2024/03/16 12:49:56;;;;;;;12.70;4.85;;;;;;;10.81;100.00;101575.97;10259991;28;20083;-73
2024/03/16 12:54:52;;;;;;;12.32;4.22;;;;;;;12.35;100.00;101582.91;10263497;28;20077;-75
2024/03/16 12:59:49;;;;;;;11.68;4.63;;;;;;;12.32;100.00;101591.75;10264064;28;20068;-74
2024/03/16 13:04:46;;;;;;;10.45;3.80;;;;;;;13.11;100.00;101590.44;10270091;28;20555;-74
2024/03/16 13:09:42;;;;;;;9.57;3.97;;;;;;;13.11;100.00;101590.44;10266484;28;20057;-75
2024/03/16 13:14:37;;;;;;;9.50;4.32;;;;;;;13.96;100.00;101604.06;10271497;28;20055;-74
2024/03/16 13:19:33;;;;;;;14.55;4.55;;;;;;;11.83;100.00;101612.47;10270146;28;20058;-74
2024/03/16 13:24:28;;;;;;;18.30;4.28;;;;;;;11.46;100.00;101600.56;10267264;28;20055;-74
2024/03/16 13:29:24;;;;;;;12.75;4.57;;;;;;;13.01;100.00;101607.16;10258104;28;20469;-74
2024/03/16 13:34:19;;;;;;;15.55;4.35;;;;;;;13.12;100.00;101635.16;10255901;28;20509;-72
2024/03/16 13:39:16;;;;;;;9.18;3.78;;;;;;;11.93;100.00;101623.28;10255829;28;20405;-74
2024/03/16 13:44:12;;;;;;;6.82;3.50;;;;;;;11.99;100.00;101627.50;10267582;28;20048;-74
2024/03/16 13:49:07;;;;;;;8.45;3.40;;;;;;;11.98;100.00;101631.38;10260689;28;20059;-73
2024/03/16 13:54:03;;;;;;;11.73;4.13;;;;;;;13.76;100.00;101637.63;10267855;28;20045;-74
2024/03/16 13:58:59;;;;;;;14.65;4.35;;;;;;;13.76;100.00;101637.63;10252397;28;20125;-72
2024/03/16 14:03:56;;;;;;;15.10;4.05;;;;;;;14.51;100.00;101636.56;10267021;28;20053;-73
2024/03/16 14:08:51;;;;;;;11.60;3.83;;;;;;;14.83;100.00;101631.75;10268552;28;20496;-72
2024/03/16 14:13:47;;;;;;;11.90;3.53;;;;;;;14.04;100.00;101661.06;10269352;28;20056;-73
2024/03/16 14:18:43;;;;;;;8.70;3.92;;;;;;;13.34;100.00;101678.31;10260624;28;20049;-73
2024/03/16 14:23:39;;;;;;;9.82;3.70;;;;;;;13.11;100.00;101667.31;10265764;28;20041;-73
2024/03/16 14:28:35;;;;;;;13.13;4.00;;;;;;;14.97;97.79;101681.16;10267044;28;20505;-73
2024/03/16 14:33:32;;;;;;;13.27;4.22;;;;;;;13.89;100.00;101669.72;10261257;28;20037;-73
2024/03/16 14:38:27;;;;;;;11.07;3.90;;;;;;;11.74;100.00;101674.56;10255897;28;20313;-73
2024/03/16 14:43:23;;;;;;;20.13;4.45;;;;;;;11.23;100.00;101680.94;10267182;28;20052;-73
2024/03/16 14:48:20;;;;;;;15.15;4.38;;;;;;;12.29;100.00;101680.09;10271844;28;20071;-74
2024/03/16 14:53:17;;;;;;;11.95;5.32;;;;;;;13.46;100.00;101695.03;10273641;28;20065;-74
2024/03/16 14:58:12;;;;;;;14.43;4.25;;;;;;;12.39;100.00;101717.47;10274354;28;20531;-73
2024/03/16 15:03:11;;;;;;;13.95;4.35;;;;;;;10.73;100.00;101715.03;10278664;28;20083;-73
2024/03/16 15:08:08;;;;;;;15.10;4.72;;;;;;;10.85;100.00;101724.75;10275233;28;20501;-74
2024/03/16 15:13:04;;;;;;;11.60;5.32;;;;;;;11.41;100.00;101726.63;10264812;28;20081;-73
2024/03/16 15:17:59;;;;;;;9.15;4.38;;;;;;;10.43;100.00;101740.06;10273523;28;20432;-73
2024/03/16 15:22:55;;;;;;;13.57;4.65;;;;;;;10.70;100.00;101740.25;10273657;28;20475;-73
2024/03/16 15:32:48;;;;;;;11.35;4.32;;;;;;;10.19;100.00;101761.88;10267071;28;20048;-73
2024/03/16 15:37:44;;;;;;;16.20;4.72;;;;;;;10.16;100.00;101779.66;10262273;28;20076;-73
2024/03/16 15:42:41;;;;;;;9.82;4.53;;;;;;;9.93;100.00;101758.59;10271503;28;20128;-73
2024/03/16 15:47:37;;;;;;;19.50;5.50;;;;;;;11.08;100.00;101781.31;10270215;28;20449;-73
2024/03/16 15:52:34;;;;;;;12.48;5.07;;;;;;;10.73;100.00;101809.97;10275941;28;20068;-73
2024/03/16 15:57:33;;;;;;;14.55;4.95;;;;;;;11.75;100.00;101786.59;10272796;28;20079;-73
2024/03/16 16:02:28;;;;;;;14.63;5.30;;;;;;;11.43;100.00;101806.56;10268634;28;20080;-73
2024/03/16 16:07:24;;;;;;;12.45;4.85;;;;;;;10.65;100.00;101807.88;10268856;28;20505;-73
2024/03/16 16:12:19;;;;;;;17.08;4.53;;;;;;;9.31;100.00;101816.41;10268167;28;20501;-73
2024/03/16 16:17:15;;;;;;;15.77;5.30;;;;;;;9.51;100.00;101823.66;10262425;28;20041;-74
2024/03/16 16:22:11;;;;;;;8.25;4.97;;;;;;;9.76;100.00;101817.19;10275504;28;20044;-73
2024/03/16 16:27:08;;;;;;;11.45;4.50;;;;;;;9.06;100.00;101834.56;10272324;28;20047;-73
2024/03/16 16:32:04;;;;;;;20.80;5.78;;;;;;;8.79;100.00;101834.13;10267977;28;20877;-74
2024/03/16 16:37:00;;;;;;;16.75;4.97;;;;;;;8.25;100.00;101867.47;10266752;28;20036;-73
2024/03/16 16:41:55;;;;;;;13.60;5.13;;;;;;;7.96;100.00;101848.94;10254086;28;20546;-75
2024/03/16 16:46:51;;;;;;;11.05;5.47;;;;;;;7.67;100.00;101841.31;10272352;28;20033;-74
2024/03/16 16:51:46;;;;;;;8.38;4.25;;;;;;;7.62;100.00;101841.31;10269887;28;20036;-73
2024/03/16 16:56:42;;;;;;;13.50;5.30;;;;;;;7.37;100.00;101859.22;10267198;28;20053;-73
2024/03/16 17:01:38;;;;;;;8.77;4.07;;;;;;;7.27;100.00;101859.19;10268694;28;20056;-73
2024/03/16 17:06:33;;;;;;;15.75;4.95;;;;;;;7.12;100.00;101872.75;10261615;28;20555;-73
2024/03/16 17:11:29;;;;;;;13.90;5.68;;;;;;;6.91;100.00;101871.84;10254442;28;20048;-73
2024/03/16 17:16:25;;;;;;;11.75;5.07;;;;;;;6.85;100.00;101890.03;10256773;28;20037;-74
2024/03/16 17:21:21;;;;;;;20.10;5.85;;;;;;;6.73;100.00;101898.41;10256244;28;20071;-74
2024/03/16 17:26:20;;;;;;;8.68;4.32;;;;;;;6.59;100.00;101901.81;10266004;28;20468;-73
2024/03/16 17:31:16;;;;;;;16.58;5.07;;;;;;;6.56;100.00;101902.38;10263469;28;20036;-73
2024/03/16 17:36:12;;;;;;;15.55;5.22;;;;;;;6.45;100.00;101928.63;10264106;28;20072;-73
2024/03/16 17:41:07;;;;;;;22.45;5.45;;;;;;;6.33;100.00;101917.94;10262868;28;20699;-73
2024/03/16 17:46:03;;;;;;;16.23;6.43;;;;;;;6.26;100.00;101920.88;10264516;28;20470;-73
2024/03/16 17:50:59;;;;;;;11.27;4.65;;;;;;;6.24;100.00;101946.66;10267296;28;20524;-74
2024/03/16 17:55:56;;;;;;;12.95;5.22;;;;;;;6.18;100.00;101932.22;10268835;28;20053;-74
2024/03/16 18:00:52;;;;;;;18.05;4.90;;;;;;;6.17;100.00;101943.34;10266863;28;20080;-73
2024/03/16 18:05:47;;;;;;;22.95;5.72;;;;;;;6.11;100.00;101956.88;10265696;28;20041;-73
2024/03/16 18:10:43;;;;;;;15.07;5.68;;;;;;;6.13;100.00;101947.66;10266088;28;20041;-73
2024/03/16 18:15:38;;;;;;;13.40;5.50;;;;;;;6.08;100.00;101949.25;10256373;28;20041;-73
2024/03/16 18:20:34;;;;;;;12.95;5.10;;;;;;;6.04;100.00;101961.72;10270483;28;20045;-73
2024/03/16 18:25:31;;;;;;;22.00;5.78;;;;;;;5.96;100.00;101962.16;10270088;28;20551;-73
2024/03/16 18:30:26;;;;;;;26.25;5.95;;;;;;;5.98;100.00;101962.72;10263768;28;20079;-73
2024/03/16 18:35:23;;;;;;;16.75;5.68;;;;;;;5.85;100.00;101973.97;10268333;28;20055;-73
2024/03/16 18:40:20;;;;;;;26.17;6.28;;;;;;;5.91;100.00;101972.94;10270971;28;20091;-73
2024/03/16 18:45:16;;;;;;;23.15;5.93;;;;;;;5.83;100.00;101979.66;10253860;28;20119;-74
2024/03/16 18:50:11;;;;;;;19.23;6.53;;;;;;;5.80;100.00;101988.31;10273919;28;20063;-72
2024/03/16 18:55:10;;;;;;;15.98;5.28;;;;;;;5.71;100.00;101984.41;10269991;28;20041;-73
2024/03/16 19:00:22;;;;;;;26.67;5.47;;;;;;;5.65;100.00;101991.66;10276064;28;20080;-73
2024/03/16 19:05:17;;;;;;;18.10;5.28;;;;;;;5.55;100.00;102005.09;10270028;28;20113;-73
2024/03/16 19:10:13;;;;;;;11.65;5.03;;;;;;;5.51;100.00;102001.25;10262297;28;20586;-73
2024/03/16 19:15:15;;;;;;;18.40;6.20;;;;;;;5.52;100.00;102013.72;10274715;28;20060;-72
2024/03/16 19:20:11;;;;;;;15.63;4.67;;;;;;;5.50;100.00;102005.06;10272383;28;20139;-73
2024/03/16 19:25:07;;;;;;;14.05;5.07;;;;;;;5.44;100.00;102006.03;10267440;28;20511;-73
2024/03/16 19:30:04;;;;;;;12.73;5.28;;;;;;;5.43;100.00;102015.25;10259035;28;20045;-74
2024/03/16 19:34:59;;;;;;;19.35;6.28;;;;;;;5.36;100.00;102009.19;10266190;28;21179;-73
2024/03/16 19:39:55;;;;;;;25.88;5.72;;;;;;;5.28;100.00;102027.53;10270737;28;20041;-74
2024/03/16 19:44:51;;;;;;;19.55;4.97;;;;;;;5.34;100.00;102027.59;10270725;28;20049;-74
2024/03/16 19:49:47;;;;;;;15.07;5.28;;;;;;;5.28;100.00;102027.53;10263000;28;20328;-73
2024/03/16 19:54:44;;;;;;;24.10;5.13;;;;;;;5.26;100.00;102032.38;10267537;28;20045;-74
2024/03/16 19:59:42;;;;;;;15.98;5.63;;;;;;;5.24;100.00;102029.13;10271179;28;20077;-73
2024/03/16 20:04:37;;;;;;;17.83;4.97;;;;;;;5.26;100.00;102032.38;10266978;28;20223;-73
2024/03/16 20:09:33;;;;;;;11.82;4.38;;;;;;;5.21;100.00;102051.28;10266880;28;20128;-73
2024/03/16 20:14:29;;;;;;;30.52;4.80;;;;;;;5.14;100.00;102066.91;10250895;28;20194;-73
2024/03/16 20:19:24;;;;;;;20.38;5.25;;;;;;;5.11;100.00;102064.72;10264966;28;20118;-73
2024/03/16 20:24:20;;;;;;;20.83;4.38;;;;;;;5.05;100.00;102074.63;10280609;28;20091;-73
2024/03/16 20:29:16;;;;;;;11.25;4.55;;;;;;;5.02;100.00;102080.56;10268762;28;20092;-73
2024/03/16 20:34:11;;;;;;;18.70;5.40;;;;;;;5.04;100.00;102088.47;10261994;28;20125;-73
2024/03/16 20:39:09;;;;;;;23.95;4.50;;;;;;;4.98;100.00;102090.25;10269981;28;20672;-73
2024/03/16 20:44:05;;;;;;;18.00;4.97;;;;;;;4.98;100.00;102094.84;10261830;28;20527;-74
2024/03/16 20:49:00;;;;;;;14.95;4.68;;;;;;;4.99;100.00;102102.75;10264179;28;20048;-73
2024/03/16 20:53:56;;;;;;;22.48;5.32;;;;;;;5.00;100.00;102107.09;10267929;28;20509;-73
2024/03/16 20:58:52;;;;;;;20.10;6.13;;;;;;;5.04;100.00;102107.44;10267343;28;20049;-74
2024/03/16 21:03:47;;;;;;;20.83;4.88;;;;;;;4.99;100.00;102118.16;10263529;28;20480;-74
2024/03/16 21:08:43;;;;;;;13.60;4.60;;;;;;;4.94;100.00;102120.81;10266725;28;20041;-73
2024/03/16 21:13:38;;;;;;;17.70;5.25;;;;;;;4.94;100.00;102115.38;10259657;28;20052;-73
2024/03/16 21:18:35;;;;;;;21.15;5.15;;;;;;;4.95;100.00;102122.47;10270996;28;20749;-75
2024/03/16 21:23:31;;;;;;;18.20;4.53;;;;;;;4.95;100.00;102128.69;10261241;28;20079;-73
2024/03/16 21:28:29;;;;;;;17.98;4.57;;;;;;;4.85;100.00;102137.50;10260862;28;20487;-73
2024/03/16 21:33:24;;;;;;;16.95;4.85;;;;;;;4.78;100.00;102142.25;10251906;28;20079;-72
2024/03/16 21:38:21;;;;;;;15.90;4.53;;;;;;;4.71;100.00;102144.28;10262936;28;20056;-73
2024/03/16 21:43:16;;;;;;;20.30;5.85;;;;;;;4.65;100.00;102150.66;10262074;28;20037;-76
2024/03/16 21:48:12;;;;;;;16.50;4.82;;;;;;;4.71;100.00;102144.28;10265590;28;20036;-73
2024/03/16 21:53:08;;;;;;;19.50;4.50;;;;;;;4.65;100.00;102147.97;10266215;28;20045;-74
2024/03/16 21:58:03;;;;;;;12.48;5.18;;;;;;;4.62;100.00;102140.31;10268783;28;20385;-74
2024/03/16 22:02:59;;;;;;;22.80;5.90;;;;;;;4.53;100.00;102147.19;10265267;28;20045;-74
2024/03/16 22:08:02;;;;;;;21.10;6.32;;;;;;;4.56;100.00;102157.53;10259695;28;20048;-75
2024/03/16 22:12:57;;;;;;;19.02;6.75;;;;;;;4.49;100.00;102156.88;10269054;28;21412;-73
2024/03/16 22:17:53;;;;;;;31.83;7.25;;;;;;;4.47;100.00;102154.38;10263087;28;20037;-73
2024/03/16 22:22:50;;;;;;;27.83;7.22;;;;;;;4.43;100.00;102164.91;10265554;28;20044;-72
2024/03/16 22:27:48;;;;;;;23.75;7.00;;;;;;;4.35;100.00;102178.81;10263693;28;20049;-73